Time;durP1;ratioP1;P1;durP2;ratioP2;P2;SDS_P1;SDS_P2;PMS_P1;PMS_P2;Temp;Humidity;BMP_temperature;BMP_pressure;BME280_temperature;BME280_humidity;BME280_pressure;Samples;Min_cycle;Max_cycle;Signal;HPM_P1;HPM_P2
2022/04/26 03:37:24;;;;;;;8.25;4.00;;;;;;;7.04;83.46;101471.22;5109589;28;20096;-72
2022/04/26 03:39:50;;;;;;;8.50;3.88;;;;;;;7.02;83.67;101467.88;5109066;28;20031;-72
2022/04/26 03:42:16;;;;;;;7.35;4.53;;;;;;;7.01;83.71;101466.25;5096624;28;20131;-71
2022/04/26 03:44:44;;;;;;;7.32;3.72;;;;;;;6.98;84.16;101463.91;5089706;28;20463;-72
2022/04/26 03:47:10;;;;;;;8.90;3.63;;;;;;;7.00;84.32;101472.53;5089971;28;20464;-72
2022/04/26 03:49:35;;;;;;;5.85;3.65;;;;;;;6.98;83.99;101475.34;5108711;28;20055;-72
2022/04/26 03:52:01;;;;;;;6.95;3.83;;;;;;;6.98;84.51;101475.34;5109336;28;20036;-72
2022/04/26 03:54:27;;;;;;;12.55;3.92;;;;;;;6.94;84.59;101473.16;5109247;28;20114;-71
2022/04/26 03:56:52;;;;;;;7.93;3.85;;;;;;;6.95;85.17;101480.97;5090986;28;20038;-72
2022/04/26 03:59:19;;;;;;;8.60;4.38;;;;;;;6.93;85.78;101485.59;5108988;28;20020;-72
2022/04/26 04:01:45;;;;;;;7.30;4.28;;;;;;;6.91;85.53;101474.28;5108681;28;20035;-72
2022/04/26 04:04:10;;;;;;;9.70;4.95;;;;;;;6.97;85.82;101475.50;5109094;28;20028;-72
2022/04/26 04:06:36;;;;;;;9.68;4.40;;;;;;;6.95;85.74;101472.19;5108964;28;20028;-72
2022/04/26 04:09:01;;;;;;;11.05;4.22;;;;;;;6.97;85.83;101483.47;5108734;28;20019;-72
2022/04/26 04:11:26;;;;;;;7.90;4.07;;;;;;;6.96;85.22;101479.97;5108786;28;20035;-72
2022/04/26 04:13:52;;;;;;;10.43;4.88;;;;;;;6.94;86.32;101484.63;5108738;28;20032;-72
2022/04/26 04:16:17;;;;;;;10.60;4.10;;;;;;;6.94;86.29;101481.97;5109125;28;20028;-72
2022/04/26 04:21:27;;;;;;;12.00;4.68;;;;;;;6.98;86.45;101499.22;5109236;28;20042;-72
2022/04/26 04:23:52;;;;;;;9.52;4.50;;;;;;;6.95;87.12;101502.19;5108997;28;20386;-72
2022/04/26 04:26:18;;;;;;;8.77;4.10;;;;;;;7.00;87.01;101513.16;5108930;28;20028;-72
2022/04/26 04:28:43;;;;;;;7.97;4.13;;;;;;;7.00;86.98;101510.50;5089428;28;20024;-72
2022/04/26 04:31:10;;;;;;;9.52;4.70;;;;;;;6.99;87.52;101495.56;5089015;28;20028;-72
2022/04/26 04:33:36;;;;;;;8.25;4.07;;;;;;;6.96;87.19;101501.19;5108811;28;20039;-72
2022/04/26 04:36:02;;;;;;;10.13;4.15;;;;;;;6.98;87.35;101501.03;5107608;28;20039;-72
2022/04/26 04:38:27;;;;;;;12.25;5.90;;;;;;;6.99;87.91;101502.69;5108748;28;20028;-72
2022/04/26 04:40:53;;;;;;;10.45;4.13;;;;;;;6.98;87.57;101509.81;5108686;28;20028;-72
2022/04/26 04:43:19;;;;;;;11.82;5.03;;;;;;;7.01;87.90;101512.16;5107403;28;20027;-72
2022/04/26 04:45:44;;;;;;;9.93;4.15;;;;;;;7.00;87.58;101513.16;5108851;28;20023;-72
2022/04/26 04:48:09;;;;;;;12.02;5.25;;;;;;;7.01;87.62;101529.88;5107185;28;20071;-71
2022/04/26 04:50:35;;;;;;;8.85;4.70;;;;;;;6.92;87.96;101510.44;5102805;28;20035;-72
2022/04/26 04:53:01;;;;;;;10.02;4.88;;;;;;;7.01;88.41;101532.53;5088936;28;20031;-72
2022/04/26 04:55:26;;;;;;;13.48;5.32;;;;;;;6.94;88.10;101521.75;5107977;28;20088;-72
2022/04/26 04:57:52;;;;;;;10.77;5.03;;;;;;;7.01;87.74;101533.38;5111065;28;20028;-72
2022/04/26 05:00:17;;;;;;;8.98;4.22;;;;;;;7.01;87.91;101537.84;5111491;28;20467;-72
2022/04/26 05:02:42;;;;;;;10.70;5.50;;;;;;;7.05;87.80;101546.31;5112285;28;20376;-72
2022/04/26 05:05:08;;;;;;;11.55;4.72;;;;;;;7.03;88.11;101542.00;5105135;28;20073;-72
2022/04/26 05:07:35;;;;;;;11.95;5.00;;;;;;;7.05;88.50;101544.50;5112122;28;20047;-71
2022/04/26 05:10:00;;;;;;;12.93;4.72;;;;;;;7.05;87.99;101559.56;5106898;28;20028;-72
2022/04/26 05:12:26;;;;;;;12.02;5.22;;;;;;;7.06;88.00;101551.47;5092364;28;20046;-71
2022/04/26 05:14:51;;;;;;;11.35;4.70;;;;;;;6.99;88.47;101542.47;5091074;28;20040;-72
2022/04/26 05:17:16;;;;;;;12.82;5.22;;;;;;;7.03;88.13;101557.91;5091976;28;20056;-72
2022/04/26 05:19:42;;;;;;;15.52;6.43;;;;;;;7.02;88.09;101561.56;5092289;28;20384;-72
2022/04/26 05:22:10;;;;;;;9.50;4.35;;;;;;;7.09;88.13;101568.91;5092351;28;20458;-72
2022/04/26 05:24:56;;;;;;;13.60;6.15;;;;;;;7.10;88.92;101565.25;5111502;28;20035;-72
2022/04/26 05:27:34;;;;;;;10.30;4.72;;;;;;;7.15;89.11;101566.47;5111678;28;20051;-72
2022/04/26 05:29:59;;;;;;;10.75;5.28;;;;;;;7.21;88.36;101570.31;5111606;28;20043;-72
2022/04/26 05:32:28;;;;;;;11.75;4.72;;;;;;;7.21;87.95;101570.31;5111185;27;20024;-72
2022/04/26 05:35:01;;;;;;;11.55;5.10;;;;;;;7.20;87.47;101576.59;5111442;28;20106;-72
2022/04/26 05:37:28;;;;;;;14.32;6.55;;;;;;;7.14;88.17;101567.44;5111431;28;20023;-72
2022/04/26 05:39:53;;;;;;;8.82;5.15;;;;;;;7.16;87.86;101578.72;5111474;28;20171;-72
2022/04/26 05:42:18;;;;;;;11.82;5.82;;;;;;;7.21;88.09;101580.91;5108578;28;20036;-72
2022/04/26 05:44:44;;;;;;;18.25;7.80;;;;;;;7.22;87.85;101578.09;5090449;28;20577;-72
2022/04/26 05:47:09;;;;;;;11.07;4.95;;;;;;;7.22;88.11;101575.44;5091775;28;20032;-72
2022/04/26 05:49:35;;;;;;;12.00;4.85;;;;;;;7.27;87.82;101580.28;5091570;28;20131;-72
2022/04/26 05:52:03;;;;;;;8.60;4.60;;;;;;;7.29;87.80;101582.78;5110778;28;20039;-72
2022/04/26 05:54:28;;;;;;;12.50;5.40;;;;;;;7.34;87.07;101575.19;5097520;28;20024;-71
2022/04/26 05:56:54;;;;;;;11.55;4.80;;;;;;;7.34;87.65;101589.28;5109788;28;20394;-72
2022/04/26 05:59:20;;;;;;;11.85;5.32;;;;;;;7.36;87.66;101589.97;5111017;28;20028;-72
2022/04/26 06:01:45;;;;;;;14.50;6.50;;;;;;;7.41;87.44;101595.63;5110993;28;20070;-72
2022/04/26 06:04:11;;;;;;;12.38;5.40;;;;;;;7.41;87.00;101589.47;5110879;28;20028;-72
2022/04/26 06:06:36;;;;;;;15.07;6.50;;;;;;;7.46;88.03;101592.47;5110890;28;20605;-72
2022/04/26 06:09:03;;;;;;;14.25;6.50;;;;;;;7.53;87.08;101600.66;5105837;28;20020;-72
2022/04/26 06:11:28;;;;;;;12.23;5.68;;;;;;;7.56;86.57;101595.84;5110588;28;20752;-72
2022/04/26 06:13:53;;;;;;;16.42;5.78;;;;;;;7.53;86.88;101595.34;5110700;28;20066;-72
2022/04/26 06:16:19;;;;;;;14.82;6.20;;;;;;;7.55;87.31;101598.69;5109437;28;20364;-72
2022/04/26 06:18:44;;;;;;;10.85;5.97;;;;;;;7.60;86.75;101601.69;5110352;28;20425;-72
2022/04/26 06:21:10;;;;;;;12.98;6.32;;;;;;;7.72;87.45;101611.03;5110989;28;20164;-72
2022/04/26 06:23:35;;;;;;;12.23;6.25;;;;;;;7.79;86.47;101605.94;5110630;28;20757;-72
2022/04/26 06:26:01;;;;;;;21.00;7.20;;;;;;;7.86;86.47;101614.94;5110483;28;20027;-73
2022/04/26 06:28:27;;;;;;;12.52;5.88;;;;;;;7.85;86.16;101599.97;5102743;28;20031;-72
2022/04/26 06:30:54;;;;;;;15.02;6.00;;;;;;;7.94;85.64;101608.78;5110339;28;20031;-72
2022/04/26 06:33:19;;;;;;;15.23;6.97;;;;;;;7.90;86.03;101609.13;5110425;28;20031;-72
2022/04/26 06:35:44;;;;;;;14.90;7.03;;;;;;;8.01;85.75;101623.91;5110097;28;20526;-72
2022/04/26 06:38:10;;;;;;;14.10;6.32;;;;;;;8.02;85.44;101628.25;5110322;28;20032;-71
2022/04/26 06:40:35;;;;;;;14.05;7.25;;;;;;;7.94;84.58;101620.28;5110109;28;20032;-72
2022/04/26 06:43:00;;;;;;;14.13;7.70;;;;;;;7.94;85.21;101628.25;5100245;28;20101;-72
2022/04/26 06:45:26;;;;;;;13.13;6.70;;;;;;;8.04;84.03;101634.25;5110081;28;20026;-72
2022/04/26 06:47:54;;;;;;;15.82;7.25;;;;;;;8.06;84.42;101631.41;5096948;28;20055;-73
2022/04/26 06:50:19;;;;;;;14.27;7.82;;;;;;;8.24;84.89;101633.97;5109627;28;20070;-72
2022/04/26 06:52:45;;;;;;;12.73;6.85;;;;;;;8.42;83.79;101631.22;5096143;27;20028;-72
2022/04/26 06:55:10;;;;;;;14.43;6.05;;;;;;;8.54;82.72;101635.22;5108627;28;20047;-72
2022/04/26 06:57:37;;;;;;;15.00;7.03;;;;;;;8.54;83.42;101638.72;5109872;27;20031;-72
2022/04/26 07:00:05;;;;;;;14.23;7.43;;;;;;;8.72;82.22;101643.06;5109888;28;20034;-72
2022/04/26 07:02:30;;;;;;;12.68;6.93;;;;;;;8.60;82.50;101633.75;5109955;28;20036;-71
2022/04/26 07:04:56;;;;;;;31.85;8.70;;;;;;;8.60;81.90;101641.72;5108433;28;20039;-73
2022/04/26 07:07:22;;;;;;;12.82;7.38;;;;;;;8.53;82.85;101638.88;5090275;28;20439;-74
2022/04/26 07:09:47;;;;;;;14.25;7.40;;;;;;;8.56;82.97;101635.88;5091813;28;20115;-74
2022/04/26 07:12:13;;;;;;;14.63;7.75;;;;;;;8.56;81.40;101631.41;5102618;28;20073;-73
2022/04/26 07:14:38;;;;;;;14.82;7.05;;;;;;;8.65;81.39;101645.56;5092534;28;20028;-73
2022/04/26 07:17:05;;;;;;;20.08;8.43;;;;;;;8.50;80.81;101634.72;5103337;28;20040;-73
2022/04/26 07:19:30;;;;;;;14.98;6.40;;;;;;;8.44;81.34;101632.72;5091762;28;20054;-73
2022/04/26 07:21:55;;;;;;;18.50;8.23;;;;;;;8.49;82.39;101646.38;5105029;28;20036;-73
2022/04/26 07:24:21;;;;;;;13.75;7.05;;;;;;;8.49;82.01;101640.22;5098132;28;20080;-75
2022/04/26 07:26:46;;;;;;;15.82;6.72;;;;;;;8.68;81.53;101644.41;5092212;28;20039;-73
2022/04/26 07:29:14;;;;;;;16.23;8.20;;;;;;;8.78;81.17;101659.19;5089892;28;20032;-73
2022/04/26 07:31:39;;;;;;;17.20;8.32;;;;;;;8.90;80.19;101651.72;5109366;28;20043;-73
2022/04/26 07:34:24;;;;;;;14.68;7.05;;;;;;;8.92;79.91;101657.69;5109067;28;20168;-73
2022/04/26 07:37:02;;;;;;;12.10;6.78;;;;;;;8.91;79.67;101656.06;5101594;28;20032;-73
2022/04/26 07:39:33;;;;;;;13.18;7.07;;;;;;;8.99;79.38;101663.22;5101037;28;20032;-73
2022/04/26 07:42:00;;;;;;;12.68;6.20;;;;;;;9.04;78.59;101670.66;5102770;28;20036;-73
2022/04/26 07:44:25;;;;;;;19.25;8.52;;;;;;;8.91;79.23;101652.56;5099006;28;20106;-73
2022/04/26 07:46:53;;;;;;;12.15;7.60;;;;;;;9.09;79.15;101673.66;5107541;28;20038;-73
2022/04/26 07:49:19;;;;;;;14.45;7.45;;;;;;;9.20;78.21;101666.19;5106857;28;20048;-74
2022/04/26 07:51:45;;;;;;;11.15;6.28;;;;;;;9.30;78.04;101667.81;5095238;28;20416;-73
2022/04/26 07:54:11;;;;;;;11.63;5.80;;;;;;;9.46;77.11;101673.16;5103566;28;20077;-74
2022/04/26 07:56:36;;;;;;;11.57;6.35;;;;;;;9.48;77.03;101676.44;5090988;28;20402;-74
2022/04/26 07:59:03;;;;;;;15.10;6.20;;;;;;;9.53;76.71;101668.78;5102596;28;20028;-75
2022/04/26 08:01:30;;;;;;;20.17;6.57;;;;;;;9.66;76.58;101686.91;5098553;28;20028;-75
2022/04/26 08:03:55;;;;;;;15.20;6.50;;;;;;;9.78;77.09;101687.41;5098816;28;20024;-76
2022/04/26 08:06:21;;;;;;;14.68;6.68;;;;;;;9.87;76.02;101681.03;5102469;28;20100;-74
2022/04/26 08:08:46;;;;;;;11.02;6.25;;;;;;;9.96;73.58;101696.00;5101576;28;20115;-74
2022/04/26 08:11:13;;;;;;;9.57;5.55;;;;;;;9.89;74.45;101692.34;5100858;28;20047;-74
2022/04/26 08:13:42;;;;;;;11.40;5.72;;;;;;;10.10;72.98;101689.94;5099091;28;20073;-74
2022/04/26 08:16:09;;;;;;;8.88;5.47;;;;;;;10.16;71.69;101695.59;5099380;28;20476;-74
2022/04/26 08:18:34;;;;;;;12.63;6.03;;;;;;;10.14;71.95;101703.78;5103842;28;20518;-74
2022/04/26 08:21:00;;;;;;;11.73;6.82;;;;;;;10.31;72.16;101699.22;5103852;28;20059;-74
2022/04/26 08:23:25;;;;;;;13.85;6.22;;;;;;;10.51;71.40;101713.78;5090479;28;20035;-74
2022/04/26 08:28:34;;;;;;;13.77;5.88;;;;;;;10.95;73.34;101707.00;5101555;28;20093;-74
2022/04/26 08:31:00;;;;;;;14.27;6.78;;;;;;;11.25;70.28;101701.78;5099827;28;20024;-73
2022/04/26 08:33:27;;;;;;;13.68;5.97;;;;;;;11.60;68.88;101703.75;5102147;28;20522;-74
2022/04/26 08:35:53;;;;;;;14.95;6.60;;;;;;;11.71;67.27;101718.53;5096967;28;20118;-74
2022/04/26 08:38:18;;;;;;;12.93;6.22;;;;;;;11.61;67.35;101713.44;5092591;28;20115;-73
2022/04/26 08:40:44;;;;;;;11.38;6.75;;;;;;;11.61;68.43;101717.97;5103406;28;20047;-74
2022/04/26 08:43:10;;;;;;;12.82;6.00;;;;;;;11.63;67.97;101707.91;5100352;28;20085;-75
2022/04/26 08:45:40;;;;;;;9.07;5.25;;;;;;;11.74;68.23;101712.81;5102688;28;20023;-75
2022/04/26 08:50:59;;;;;;;9.77;5.60;;;;;;;11.86;68.13;101721.25;5105855;28;20051;-75
2022/04/26 08:53:26;;;;;;;11.57;6.35;;;;;;;11.78;68.17;101721.31;5104673;28;20042;-74
2022/04/26 08:55:54;;;;;;;17.63;8.50;;;;;;;11.74;66.85;101710.16;5097720;28;20463;-75
2022/04/26 08:58:20;;;;;;;14.50;6.18;;;;;;;11.92;66.91;101725.88;5110779;28;20035;-75
2022/04/26 09:01:16;;;;;;;13.80;5.88;;;;;;;12.09;67.16;101725.69;5102185;28;20110;-75
2022/04/26 09:03:58;;;;;;;13.32;7.32;;;;;;;12.25;65.75;101717.44;5097465;28;20024;-74
2022/04/26 09:06:30;;;;;;;16.80;7.18;;;;;;;12.24;65.87;101724.66;5096034;28;20115;-75
2022/04/26 09:09:07;;;;;;;19.58;7.35;;;;;;;12.23;65.14;101724.81;5110337;28;20527;-75
2022/04/26 09:11:34;;;;;;;11.68;6.10;;;;;;;12.17;65.08;101728.25;5112123;28;20031;-75
2022/04/26 09:14:05;;;;;;;11.65;6.03;;;;;;;12.18;63.65;101738.78;5106187;28;20040;-75
2022/04/26 09:16:31;;;;;;;11.95;5.13;;;;;;;12.25;63.99;101741.53;5107194;28;20081;-74
2022/04/26 09:19:08;;;;;;;12.32;6.57;;;;;;;12.28;64.23;101731.28;5099527;28;20464;-74
2022/04/26 09:21:36;;;;;;;10.68;5.35;;;;;;;12.31;63.46;101730.06;5111376;28;20042;-75
2022/04/26 09:24:06;;;;;;;9.43;5.10;;;;;;;12.54;62.73;101729.94;5107183;28;20032;-76
2022/04/26 09:26:39;;;;;;;12.32;5.78;;;;;;;12.86;63.41;101730.50;5103232;28;20036;-76
2022/04/26 09:29:06;;;;;;;16.15;5.60;;;;;;;13.20;61.44;101739.69;5093805;27;20144;-74
2022/04/26 09:31:37;;;;;;;10.45;5.57;;;;;;;13.31;60.83;101729.34;5100682;28;20035;-75
2022/04/26 09:34:09;;;;;;;11.27;6.33;;;;;;;13.16;58.91;101726.69;5092151;28;20032;-73
2022/04/26 09:36:50;;;;;;;12.57;6.25;;;;;;;12.91;61.08;101733.44;5111383;28;20281;-74
2022/04/26 09:39:24;;;;;;;8.20;4.77;;;;;;;12.82;59.73;101742.63;5092624;28;20020;-75
2022/04/26 09:41:51;;;;;;;8.50;5.25;;;;;;;12.76;59.36;101733.50;5107036;28;20321;-75
2022/04/26 09:44:17;;;;;;;10.45;5.80;;;;;;;12.84;60.34;101752.13;5110852;28;20069;-75
2022/04/26 09:46:42;;;;;;;11.82;5.35;;;;;;;12.95;59.24;101745.44;5111810;28;20066;-75
2022/04/26 09:49:14;;;;;;;13.23;4.60;;;;;;;12.96;59.50;101754.28;5093258;28;20040;-75
2022/04/26 09:51:40;;;;;;;9.63;4.45;;;;;;;13.09;58.77;101771.31;5094401;28;20270;-74
2022/04/26 09:54:07;;;;;;;9.43;4.85;;;;;;;12.96;58.18;101756.97;5094832;28;20035;-75
2022/04/26 09:56:33;;;;;;;9.75;5.20;;;;;;;12.99;59.14;101760.09;5110711;28;20078;-75
2022/04/26 09:59:02;;;;;;;12.20;4.97;;;;;;;13.00;57.53;101764.44;5104852;28;20032;-75
2022/04/26 10:01:47;;;;;;;8.02;4.35;;;;;;;13.13;59.27;101769.94;5090309;28;20027;-75
2022/04/26 10:04:17;;;;;;;12.93;4.32;;;;;;;13.15;57.35;101769.72;5107038;28;20035;-75
2022/04/26 10:06:43;;;;;;;8.93;4.00;;;;;;;12.99;57.36;101781.50;5110880;28;20059;-74
2022/04/26 10:09:10;;;;;;;10.90;4.60;;;;;;;12.78;57.27;101779.63;5110820;28;20020;-75
2022/04/26 10:11:37;;;;;;;10.60;5.70;;;;;;;12.87;57.92;101780.38;5106725;28;20126;-75
2022/04/26 10:14:05;;;;;;;14.07;4.30;;;;;;;13.15;56.19;101780.44;5098090;28;20502;-74
2022/04/26 10:16:32;;;;;;;12.30;4.97;;;;;;;13.26;54.26;101782.66;5102856;28;20027;-76
2022/04/26 10:19:07;;;;;;;10.63;5.15;;;;;;;13.38;55.40;101783.78;5097021;28;20491;-75
2022/04/26 10:21:35;;;;;;;5.45;3.70;;;;;;;13.28;53.76;101780.63;5095901;28;20483;-74
2022/04/26 10:24:03;;;;;;;5.18;4.15;;;;;;;13.06;56.32;101778.91;5091101;28;20461;-75
2022/04/26 10:26:30;;;;;;;8.57;5.00;;;;;;;13.09;56.56;101787.38;5108316;28;20378;-74
2022/04/26 10:29:22;;;;;;;8.68;4.40;;;;;;;13.09;56.68;101790.06;5110772;28;20031;-74
2022/04/26 10:32:10;;;;;;;8.73;5.22;;;;;;;13.10;56.91;101791.75;5087937;28;20070;-74
2022/04/26 10:34:36;;;;;;;12.90;5.43;;;;;;;13.07;56.56;101786.78;5094826;28;20445;-75
2022/04/26 10:37:11;;;;;;;9.05;4.57;;;;;;;13.37;54.61;101787.50;5105636;28;20027;-74
2022/04/26 10:39:41;;;;;;;11.10;4.50;;;;;;;13.33;54.37;101783.53;5106365;28;20028;-74
2022/04/26 10:42:09;;;;;;;7.25;4.43;;;;;;;13.40;55.39;101790.81;5108594;28;20046;-75
2022/04/26 10:44:40;;;;;;;9.50;4.90;;;;;;;13.39;55.00;101790.00;5110082;28;20057;-75
2022/04/26 10:47:06;;;;;;;6.38;4.40;;;;;;;13.49;54.10;101793.19;5094859;28;20878;-75
2022/04/26 10:49:32;;;;;;;7.88;4.50;;;;;;;13.51;52.72;101801.84;5095435;28;20128;-74
2022/04/26 10:52:18;;;;;;;8.57;4.50;;;;;;;13.37;54.66;101800.91;5104472;28;20146;-75
2022/04/26 10:54:46;;;;;;;7.68;4.60;;;;;;;13.56;53.01;101799.41;5103427;28;20027;-74
2022/04/26 10:57:20;;;;;;;9.25;4.70;;;;;;;13.76;53.17;101793.41;5090530;28;20051;-74
2022/04/26 10:59:56;;;;;;;6.45;4.57;;;;;;;13.90;52.69;101787.09;5110010;28;20034;-75
2022/04/26 11:02:23;;;;;;;7.15;4.55;;;;;;;13.80;53.57;101781.25;5093433;28;20020;-75
2022/04/26 11:05:01;;;;;;;9.65;4.93;;;;;;;13.73;53.93;101786.56;5102848;28;20031;-74
2022/04/26 11:07:29;;;;;;;11.02;4.63;;;;;;;13.82;52.97;101789.94;5090323;28;20030;-74
2022/04/26 11:09:56;;;;;;;11.73;6.45;;;;;;;13.89;53.77;101796.19;5093859;28;20032;-75
2022/04/26 11:12:23;;;;;;;9.77;4.57;;;;;;;13.99;53.30;101793.13;5103646;28;20050;-75
2022/04/26 11:14:51;;;;;;;8.45;4.40;;;;;;;14.10;53.63;101789.91;5094232;28;20040;-75
2022/04/26 11:17:18;;;;;;;9.93;5.82;;;;;;;14.23;52.73;101790.00;5109607;28;20023;-74
2022/04/26 11:19:52;;;;;;;8.85;5.10;;;;;;;14.31;54.01;101801.59;5109608;28;21056;-75
2022/04/26 11:22:18;;;;;;;9.88;4.88;;;;;;;14.31;52.17;101796.25;5092868;28;20042;-75
2022/04/26 11:30:30;;;;;;;11.00;5.13;;;;;;;14.47;51.79;101802.09;5106694;28;20092;-76
2022/04/26 11:32:58;;;;;;;10.95;5.38;;;;;;;14.47;51.53;101787.84;5098098;28;20038;-75
2022/04/26 11:35:24;;;;;;;9.95;5.22;;;;;;;14.65;53.51;101804.28;5101123;28;20031;-75
2022/04/26 11:37:53;;;;;;;10.15;5.60;;;;;;;14.50;50.14;101803.56;5098557;28;20435;-75
2022/04/26 11:40:30;;;;;;;11.73;5.78;;;;;;;14.29;50.64;101801.78;5089834;28;20043;-75
2022/04/26 11:42:57;;;;;;;13.43;5.55;;;;;;;14.06;51.59;101782.47;5107364;28;20598;-75
2022/04/26 11:45:28;;;;;;;10.85;5.18;;;;;;;14.23;51.37;101792.69;5099843;28;20028;-76
2022/04/26 11:47:54;;;;;;;15.43;5.23;;;;;;;14.36;51.78;101799.97;5105087;28;20390;-75
2022/04/26 11:50:21;;;;;;;9.40;5.03;;;;;;;14.46;52.37;101791.53;5108431;28;20204;-75
2022/04/26 11:52:49;;;;;;;11.43;5.68;;;;;;;14.79;51.01;101807.00;5099663;28;20038;-75
2022/04/26 11:55:19;;;;;;;11.82;6.22;;;;;;;14.72;51.58;101808.84;5100784;28;20024;-75
2022/04/26 11:57:48;;;;;;;11.20;5.45;;;;;;;14.57;52.18;101803.63;5103801;28;20019;-75
2022/04/26 12:00:19;;;;;;;10.30;5.85;;;;;;;14.49;51.74;101809.97;5097595;28;20028;-74
2022/04/26 12:02:47;;;;;;;11.77;5.93;;;;;;;14.43;50.97;101813.41;5098897;28;20498;-75
2022/04/26 12:05:14;;;;;;;9.65;5.32;;;;;;;14.42;51.27;101812.59;5095419;28;20058;-75
2022/04/26 12:07:39;;;;;;;12.00;5.28;;;;;;;14.67;51.22;101821.03;5099801;28;20031;-75
2022/04/26 12:10:27;;;;;;;10.15;5.80;;;;;;;14.94;50.96;101822.97;5102497;28;20085;-76
2022/04/26 12:12:55;;;;;;;8.82;4.53;;;;;;;15.00;48.30;101814.94;5098683;28;20044;-75
2022/04/26 12:15:29;;;;;;;10.15;5.50;;;;;;;14.79;49.62;101813.22;5102823;28;20024;-75
2022/04/26 12:18:02;;;;;;;10.02;5.85;;;;;;;14.57;49.97;101806.31;5108761;28;20031;-76
2022/04/26 12:20:27;;;;;;;9.18;5.53;;;;;;;14.51;49.87;101815.94;5098533;28;20082;-75
2022/04/26 12:22:52;;;;;;;10.20;5.45;;;;;;;14.45;48.73;101816.75;5101879;28;20434;-75
2022/04/26 12:25:18;;;;;;;9.38;5.85;;;;;;;14.51;49.61;101812.44;5094371;28;20020;-75
2022/04/26 12:27:43;;;;;;;11.88;5.80;;;;;;;14.60;48.47;101822.03;5103144;28;20020;-75
2022/04/26 12:30:09;;;;;;;12.00;6.88;;;;;;;14.71;49.30;101813.38;5099335;28;20085;-75
2022/04/26 12:32:40;;;;;;;8.52;5.07;;;;;;;14.80;49.31;101825.63;5112514;28;20054;-74
2022/04/26 12:35:09;;;;;;;8.68;5.15;;;;;;;14.78;48.67;101822.31;5112913;28;20081;-75
2022/04/26 12:37:34;;;;;;;10.27;5.95;;;;;;;14.61;47.71;101811.06;5101644;28;20031;-74
2022/04/26 12:40:08;;;;;;;9.48;4.90;;;;;;;14.62;51.42;101815.44;5091698;28;20039;-75
2022/04/26 12:42:36;;;;;;;10.43;6.70;;;;;;;14.81;48.15;101821.06;5097231;28;20169;-75
2022/04/26 12:45:10;;;;;;;13.13;6.57;;;;;;;14.77;48.63;101815.25;5094336;28;20119;-75
2022/04/26 12:50:29;;;;;;;7.57;5.13;;;;;;;14.67;48.07;101814.81;5110182;28;20062;-75
2022/04/26 12:53:40;;;;;;;11.10;5.93;;;;;;;14.58;49.51;101808.78;5105125;28;20363;-75
2022/04/26 12:56:07;;;;;;;9.00;4.82;;;;;;;14.77;46.50;101814.44;5100368;28;20475;-75
2022/04/26 12:58:35;;;;;;;8.70;4.60;;;;;;;14.64;46.50;101815.22;5112213;28;20036;-74
2022/04/26 13:01:01;;;;;;;8.43;5.40;;;;;;;14.51;48.05;101821.31;5096516;28;20020;-75
2022/04/26 13:03:27;;;;;;;9.13;5.90;;;;;;;14.47;46.38;101818.19;5108273;28;20034;-74
2022/04/26 13:06:08;;;;;;;9.50;4.97;;;;;;;14.40;47.52;101805.78;5098180;28;20028;-75
2022/04/26 13:08:34;;;;;;;9.90;5.60;;;;;;;14.50;47.35;101805.41;5107364;28;20074;-75
2022/04/26 13:11:00;;;;;;;11.88;5.53;;;;;;;14.57;46.05;101804.44;5102237;28;20044;-75
2022/04/26 13:13:27;;;;;;;9.07;4.78;;;;;;;14.61;46.77;101807.56;5103712;28;20527;-75
2022/04/26 13:15:52;;;;;;;6.55;3.67;;;;;;;14.50;45.61;101798.19;5108253;27;20423;-75
2022/04/26 13:18:18;;;;;;;10.50;4.45;;;;;;;14.39;46.35;101810.31;5093222;28;20034;-75
2022/04/26 13:20:45;;;;;;;7.22;4.72;;;;;;;14.45;47.38;101809.50;5099511;27;20024;-75
2022/04/26 13:23:14;;;;;;;6.63;4.72;;;;;;;14.48;48.30;101808.28;5096547;28;20038;-75
2022/04/26 13:25:40;;;;;;;9.10;5.25;;;;;;;14.71;46.41;101809.88;5096072;28;20490;-75
2022/04/26 13:28:06;;;;;;;11.25;4.68;;;;;;;14.92;45.57;101811.59;5096465;28;20459;-75
2022/04/26 13:30:32;;;;;;;12.13;5.22;;;;;;;15.09;45.17;101802.97;5096492;28;20081;-75
2022/04/26 13:32:58;;;;;;;10.90;5.47;;;;;;;15.07;45.06;101812.28;5097887;27;20461;-76
2022/04/26 13:35:25;;;;;;;12.93;5.15;;;;;;;14.94;44.87;101813.06;5097216;28;21351;-75
2022/04/26 13:37:52;;;;;;;8.25;5.80;;;;;;;14.82;45.44;101814.66;5099101;27;20066;-76
2022/04/26 13:40:18;;;;;;;6.97;3.67;;;;;;;14.88;45.74;101808.47;5096745;28;20023;-76
2022/04/26 13:42:43;;;;;;;11.57;5.55;;;;;;;14.97;46.43;101809.16;5095995;27;20042;-75
2022/04/26 13:45:09;;;;;;;7.20;5.07;;;;;;;14.96;46.39;101802.09;5096803;27;20036;-75
2022/04/26 13:47:36;;;;;;;8.25;4.35;;;;;;;15.01;46.04;101807.69;5103853;27;20065;-75
2022/04/26 13:50:04;;;;;;;9.23;6.15;;;;;;;15.16;45.28;101810.22;5096483;28;20100;-72
2022/04/26 13:52:30;;;;;;;6.25;4.45;;;;;;;15.16;45.97;101807.53;5094963;28;20059;-76
2022/04/26 13:54:55;;;;;;;9.05;4.90;;;;;;;15.29;46.02;101808.38;5078786;28;20404;-77
2022/04/26 13:57:20;;;;;;;7.60;4.43;;;;;;;15.50;44.80;101820.81;5096583;28;20482;-77
2022/04/26 13:59:46;;;;;;;13.13;5.35;;;;;;;15.33;44.86;101815.00;5092774;28;20146;-74
2022/04/26 14:02:12;;;;;;;10.77;5.40;;;;;;;15.17;45.83;101826.16;5110779;28;20028;-74
2022/04/26 14:04:38;;;;;;;7.57;4.05;;;;;;;14.97;45.58;101809.97;5108895;28;20038;-74
2022/04/26 14:07:04;;;;;;;6.90;4.22;;;;;;;15.00;45.47;101830.22;5091452;28;20032;-74
2022/04/26 14:09:30;;;;;;;7.47;4.05;;;;;;;15.00;45.56;101827.53;5100425;28;20022;-74
2022/04/26 14:11:56;;;;;;;6.47;4.30;;;;;;;14.89;45.51;101821.72;5089337;28;20027;-74
2022/04/26 14:22:42;;;;;;;7.88;5.05;;;;;;;15.10;45.03;101818.06;5069435;28;20391;-73
2022/04/26 14:25:09;;;;;;;7.63;4.38;;;;;;;15.08;44.32;101832.72;5108181;28;20081;-74
2022/04/26 14:27:37;;;;;;;10.38;4.90;;;;;;;14.99;45.04;101831.28;5094292;28;20557;-73
2022/04/26 14:30:05;;;;;;;10.27;5.22;;;;;;;15.00;44.32;101838.28;5092185;28;20106;-74
2022/04/26 14:32:31;;;;;;;8.02;4.28;;;;;;;14.82;43.95;101825.41;5110671;28;20035;-73
2022/04/26 14:34:56;;;;;;;10.50;5.18;;;;;;;14.61;45.50;101823.66;5110721;28;20085;-74
2022/04/26 14:37:22;;;;;;;8.95;4.25;;;;;;;14.60;45.15;101835.44;5097637;28;20071;-75
2022/04/26 14:39:48;;;;;;;5.30;4.15;;;;;;;14.65;45.87;101839.19;5106314;28;20044;-74
2022/04/26 14:42:14;;;;;;;7.00;4.63;;;;;;;14.65;46.80;101838.38;5107923;28;20131;-74
2022/04/26 14:44:39;;;;;;;9.38;4.53;;;;;;;14.59;45.37;101829.25;5096998;28;20038;-73
2022/04/26 14:47:06;;;;;;;9.32;4.32;;;;;;;14.56;46.06;101835.00;5105731;28;20084;-74
2022/04/26 14:49:32;;;;;;;7.43;4.47;;;;;;;14.53;44.65;101821.97;5090675;28;20048;-73
2022/04/26 14:51:57;;;;;;;7.57;4.35;;;;;;;14.52;45.60;101830.22;5110081;28;20456;-73
2022/04/26 14:54:23;;;;;;;6.78;3.80;;;;;;;14.51;45.95;101841.97;5097542;28;20043;-75
2022/04/26 14:56:48;;;;;;;9.18;3.65;;;;;;;14.42;44.95;101839.44;5091694;28;20213;-73
2022/04/26 14:59:19;;;;;;;8.95;4.15;;;;;;;14.35;45.99;101833.19;5109469;28;20104;-73
2022/04/26 15:01:46;;;;;;;9.17;4.80;;;;;;;14.39;45.79;101842.53;5110025;28;20481;-73
2022/04/26 15:04:13;;;;;;;15.52;4.28;;;;;;;14.20;45.29;101837.84;5110146;28;20038;-74
2022/04/26 15:06:38;;;;;;;9.65;3.95;;;;;;;14.22;46.91;101833.13;5109988;28;20494;-74
2022/04/26 15:11:48;;;;;;;6.60;3.88;;;;;;;14.29;45.63;101835.84;5110077;28;20503;-73
2022/04/26 15:16:57;;;;;;;8.65;3.42;;;;;;;14.41;47.03;101845.84;5107330;28;20040;-74
2022/04/26 15:19:24;;;;;;;8.05;3.95;;;;;;;14.39;45.24;101841.69;5071888;28;20044;-73
2022/04/26 15:21:49;;;;;;;7.90;3.85;;;;;;;14.38;46.20;101835.50;5090259;28;20023;-74
2022/04/26 15:24:15;;;;;;;8.45;3.78;;;;;;;14.41;45.67;101843.16;5090222;28;20116;-74
2022/04/26 15:26:41;;;;;;;6.00;3.92;;;;;;;14.41;45.26;101835.09;5097098;28;20043;-74
2022/04/26 15:29:06;;;;;;;8.82;3.83;;;;;;;14.41;44.39;101837.78;5109610;28;20027;-75
2022/04/26 15:31:33;;;;;;;9.15;3.50;;;;;;;14.39;45.77;101842.53;5109641;28;20069;-74
2022/04/26 15:33:58;;;;;;;6.32;3.65;;;;;;;14.40;45.82;101840.66;5099675;28;20023;-74